This is the latest recevied weather packets stored in our database for station/object SP8AQK-13. If no packets are shown the sender has not sent any weather packets the latest 10 day(s).
| Time | Temp. | Humidity | Pressure | Rain* | Wind** | Luminosity | Snow |
|---|---|---|---|---|---|---|---|
| 1778244123 | 14.44° C | 100% | 1019.5 hPa | - | - | - | - |
| 1778242922 | 14.44° C | 100% | 1019.3 hPa | - | - | - | - |
| 1778241721 | 16.11° C | 94% | 1019 hPa | - | - | - | - |
| 1778240521 | 16.11° C | 97% | 1018.9 hPa | - | - | - | - |
| 1778239320 | 15.56° C | 100% | 1019 hPa | - | - | - | - |
| 1778238119 | 16.11° C | 99% | 1018.8 hPa | - | - | - | - |
| 1778236918 | 15° C | 100% | 1018.9 hPa | - | - | - | - |
| 1778235718 | 15° C | 100% | 1019 hPa | - | - | - | - |
| 1778234517 | 15° C | 100% | 1018.9 hPa | - | - | - | - |
| 1778233316 | 15° C | 100% | 1018.9 hPa | - | - | - | - |
| 1778232116 | 13.89° C | 100% | 1019 hPa | - | - | - | - |
| 1778230915 | 13.89° C | 100% | 1018.9 hPa | - | - | - | - |
| 1778229714 | 13.89° C | 100% | 1018.7 hPa | - | - | - | - |
| 1778228513 | 13.89° C | 100% | 1018.7 hPa | - | - | - | - |
| 1778227313 | 13.33° C | 100% | 1018.5 hPa | - | - | - | - |
| 1778226112 | 13.33° C | 100% | 1018.5 hPa | - | - | - | - |
| 1778225063 | 13.33° C | 100% | 1018.3 hPa | - | - | - | - |
| 1778223862 | 12.78° C | 100% | 1018.3 hPa | - | - | - | - |
| 1778221460 | 12.78° C | 100% | 1017.8 hPa | - | - | - | - |
| 1778220260 | 12.78° C | 100% | 1017.7 hPa | - | - | - | - |
| 1778219059 | 12.78° C | 100% | 1017.5 hPa | - | - | - | - |
| 1778217859 | 12.78° C | 100% | 1017.3 hPa | - | - | - | - |
| 1778216657 | 12.78° C | 100% | 1017.2 hPa | - | - | - | - |
| 1778191443 | 15° C | 100% | 1015.9 hPa | - | - | - | - |
| 1778190241 | 14.44° C | 100% | 1016 hPa | - | - | - | - |
* Rain since midnight (hover to see other rain measurements)
** Current wind speed in m/s (hover to see current wind gust speed)